createdAt,value
2023-05-14T00:00:13.168Z,25.74
2023-05-14T00:02:14.613Z,25.73
2023-05-14T00:04:16.172Z,25.74
2023-05-14T00:06:20.639Z,25.74
2023-05-14T00:08:22.089Z,25.74
2023-05-14T00:10:23.792Z,25.76
2023-05-14T00:12:26.626Z,25.76
2023-05-14T00:14:31.270Z,25.76
2023-05-14T00:16:32.905Z,25.76
2023-05-14T00:18:34.485Z,25.76
2023-05-14T00:20:35.944Z,25.76
2023-05-14T00:22:37.588Z,25.76
2023-05-14T00:24:38.993Z,25.75
2023-05-14T00:26:40.542Z,25.76
2023-05-14T00:28:41.976Z,25.75
2023-05-14T00:30:43.441Z,25.77
2023-05-14T00:32:44.981Z,25.77
2023-05-14T00:34:46.508Z,25.78
2023-05-14T00:36:48.089Z,25.78
2023-05-14T00:38:49.556Z,25.79
2023-05-14T00:40:51.937Z,25.80
2023-05-14T00:42:53.874Z,25.78
2023-05-14T00:44:55.445Z,25.78
2023-05-14T00:46:57.014Z,25.78
2023-05-14T00:48:59.046Z,25.77
2023-05-14T00:51:00.522Z,25.78
2023-05-14T00:53:02.067Z,25.77
2023-05-14T00:55:04.641Z,25.78
2023-05-14T00:57:06.716Z,25.79
2023-05-14T00:59:08.332Z,25.80
2023-05-14T01:01:10.142Z,25.81
2023-05-14T01:03:11.794Z,25.81
2023-05-14T01:05:13.396Z,25.81
2023-05-14T01:07:17.806Z,25.81
2023-05-14T01:09:29.716Z,25.80
2023-05-14T01:11:36.704Z,25.79
2023-05-14T01:13:51.305Z,25.79
2023-05-14T01:15:54.440Z,25.79
2023-05-14T01:18:04.567Z,25.79
2023-05-14T01:20:07.316Z,25.79
2023-05-14T01:22:08.976Z,25.80
2023-05-14T01:24:10.558Z,25.80
2023-05-14T01:26:11.984Z,25.80
2023-05-14T01:28:27.786Z,25.81
2023-05-14T01:30:31.095Z,25.81
2023-05-14T01:32:33.633Z,25.82
2023-05-14T01:34:39.810Z,25.82
2023-05-14T01:36:42.113Z,25.81
2023-05-14T01:38:45.808Z,25.81
2023-05-14T01:40:48.208Z,25.80
2023-05-14T01:42:51.939Z,25.79
2023-05-14T01:44:53.474Z,25.80
2023-05-14T01:46:54.898Z,25.79
2023-05-14T01:48:56.287Z,25.81
2023-05-14T01:50:57.818Z,25.81
2023-05-14T01:52:59.368Z,25.81
2023-05-14T01:55:00.991Z,25.82
2023-05-14T01:57:02.465Z,25.81
2023-05-14T01:59:03.985Z,25.81
2023-05-14T02:01:05.478Z,25.80
2023-05-14T02:03:07.096Z,25.79
2023-05-14T02:05:09.243Z,25.78
2023-05-14T02:07:10.749Z,25.78
2023-05-14T02:09:12.200Z,25.77
2023-05-14T02:11:13.926Z,25.78
2023-05-14T02:13:16.808Z,25.77
2023-05-14T02:15:18.427Z,25.77
2023-05-14T02:17:19.877Z,25.77
2023-05-14T02:19:21.327Z,25.78
2023-05-14T02:21:22.772Z,25.78
2023-05-14T02:23:34.228Z,25.78
2023-05-14T02:25:42.256Z,25.75
2023-05-14T02:27:43.839Z,25.77
2023-05-14T02:29:45.849Z,25.76
2023-05-14T02:31:47.519Z,25.76
2023-05-14T02:33:49.022Z,25.76
2023-05-14T02:35:50.493Z,25.75
2023-05-14T02:37:52.026Z,25.76
2023-05-14T02:39:53.511Z,25.75
2023-05-14T02:41:55.031Z,25.77
2023-05-14T02:43:56.843Z,25.77
2023-05-14T02:45:58.272Z,25.78
2023-05-14T02:47:59.775Z,25.67
2023-05-14T02:50:01.376Z,25.76
2023-05-14T02:52:03.517Z,25.78
2023-05-14T02:54:05.075Z,25.77
2023-05-14T02:56:06.656Z,25.76
2023-05-14T02:58:08.068Z,25.76
2023-05-14T03:00:09.910Z,25.76
2023-05-14T03:02:11.992Z,25.76
2023-05-14T03:04:13.818Z,25.76
2023-05-14T03:06:15.391Z,25.77
2023-05-14T03:08:16.777Z,25.77
2023-05-14T03:10:18.246Z,25.78
2023-05-14T03:12:19.693Z,25.79
2023-05-14T03:14:21.092Z,25.79
2023-05-14T03:16:22.832Z,25.80
2023-05-14T03:18:24.492Z,25.78
2023-05-14T03:20:26.612Z,25.77
2023-05-14T03:22:28.090Z,25.77
2023-05-14T03:24:30.288Z,25.77
2023-05-14T03:26:31.846Z,25.78
2023-05-14T03:28:33.218Z,25.78
2023-05-14T03:30:34.877Z,25.78
2023-05-14T03:32:37.385Z,25.79
2023-05-14T03:34:38.897Z,25.79
2023-05-14T03:36:40.354Z,25.80
2023-05-14T03:38:41.963Z,25.80
2023-05-14T03:40:44.256Z,25.81
2023-05-14T03:42:45.765Z,25.81
2023-05-14T03:44:47.193Z,25.80
2023-05-14T03:46:48.654Z,25.79
2023-05-14T03:48:50.237Z,25.78
2023-05-14T03:50:52.194Z,25.79
2023-05-14T03:52:54.908Z,25.79
2023-05-14T03:54:56.411Z,25.79
2023-05-14T03:56:57.839Z,25.79
2023-05-14T03:58:59.462Z,25.80
2023-05-14T04:01:00.920Z,25.81
2023-05-14T04:03:02.570Z,25.81
2023-05-14T04:05:04.257Z,25.81
2023-05-14T04:07:05.751Z,25.81
2023-05-14T04:09:07.322Z,25.82
2023-05-14T04:11:08.767Z,25.81
2023-05-14T04:13:10.436Z,25.80
2023-05-14T04:15:11.919Z,25.80
2023-05-14T04:17:13.450Z,25.79
2023-05-14T04:19:14.941Z,25.80
2023-05-14T04:21:16.544Z,25.80
2023-05-14T04:23:17.970Z,25.81
2023-05-14T04:25:19.956Z,25.81
2023-05-14T04:27:21.748Z,25.82
2023-05-14T04:29:23.211Z,25.81
2023-05-14T04:31:24.743Z,25.81
2023-05-14T04:33:26.210Z,25.80
2023-05-14T04:35:28.653Z,25.82
2023-05-14T04:37:30.943Z,25.81
2023-05-14T04:39:32.381Z,25.79
2023-05-14T04:41:33.920Z,25.80
2023-05-14T04:43:35.478Z,25.80
2023-05-14T04:45:37.080Z,25.81
2023-05-14T04:47:38.524Z,25.81
2023-05-14T04:49:40.046Z,25.80
2023-05-14T04:51:41.527Z,25.82
2023-05-14T04:53:42.996Z,25.82
2023-05-14T04:55:44.674Z,25.82
2023-05-14T04:57:46.104Z,25.82
2023-05-14T04:59:47.505Z,25.82
2023-05-14T05:01:49.034Z,25.80
2023-05-14T05:03:50.932Z,25.80
2023-05-14T05:05:52.882Z,25.79
2023-05-14T05:07:54.574Z,25.78
2023-05-14T05:09:55.999Z,25.80
2023-05-14T05:11:57.579Z,25.79
2023-05-14T05:13:59.111Z,25.79
2023-05-14T05:16:00.704Z,25.80
2023-05-14T05:18:02.227Z,25.82
2023-05-14T05:20:05.638Z,25.81
2023-05-14T05:22:07.164Z,25.81
2023-05-14T05:24:08.826Z,25.79
2023-05-14T05:26:10.263Z,25.79
2023-05-14T05:28:11.800Z,25.78
2023-05-14T05:30:13.499Z,25.77
2023-05-14T05:32:15.000Z,25.76
2023-05-14T05:34:16.585Z,25.75
2023-05-14T05:36:18.023Z,25.75
2023-05-14T05:38:19.529Z,25.76
2023-05-14T05:40:20.993Z,25.76
2023-05-14T05:42:22.575Z,25.77
2023-05-14T05:44:24.036Z,25.76
2023-05-14T05:46:25.550Z,25.78
2023-05-14T05:48:27.018Z,25.77
2023-05-14T05:50:28.482Z,25.78
2023-05-14T05:52:30.034Z,25.77
2023-05-14T05:54:34.624Z,25.76
2023-05-14T05:56:36.092Z,25.76
2023-05-14T05:58:38.723Z,25.76
2023-05-14T06:00:40.145Z,25.75
2023-05-14T06:02:41.802Z,25.76
2023-05-14T06:04:43.470Z,25.77
2023-05-14T06:06:44.903Z,25.77
2023-05-14T06:08:46.315Z,25.78
2023-05-14T06:10:47.868Z,25.78
2023-05-14T06:12:49.288Z,25.79
2023-05-14T06:14:51.331Z,25.79
2023-05-14T06:16:52.958Z,25.78
2023-05-14T06:18:55.369Z,25.78
2023-05-14T06:20:57.946Z,25.77
2023-05-14T06:22:59.382Z,25.77
2023-05-14T06:25:00.930Z,25.76
2023-05-14T06:27:02.406Z,25.77
2023-05-14T06:29:03.841Z,25.77
2023-05-14T06:31:05.259Z,25.78
2023-05-14T06:33:06.873Z,25.78
2023-05-14T06:35:08.528Z,25.79
2023-05-14T06:37:11.475Z,25.80
2023-05-14T06:39:12.994Z,25.79
2023-05-14T06:41:14.479Z,25.79
2023-05-14T06:43:15.965Z,25.78
2023-05-14T06:45:17.501Z,25.78
2023-05-14T06:47:18.938Z,25.77
2023-05-14T06:49:21.147Z,25.76
2023-05-14T06:51:22.540Z,25.78
2023-05-14T06:53:23.930Z,25.78
2023-05-14T06:55:25.612Z,25.78
2023-05-14T06:57:27.095Z,25.78
2023-05-14T06:59:28.825Z,25.80
2023-05-14T07:01:30.598Z,25.80
2023-05-14T07:03:32.223Z,25.80
2023-05-14T07:05:33.880Z,25.79
2023-05-14T07:07:35.296Z,25.79
2023-05-14T07:09:36.675Z,25.78
2023-05-14T07:11:38.149Z,25.78
2023-05-14T07:13:40.117Z,25.77
2023-05-14T07:15:41.578Z,25.78
2023-05-14T07:17:43.103Z,25.78
2023-05-14T07:19:44.533Z,25.78
2023-05-14T07:21:46.180Z,25.79
2023-05-14T07:23:47.649Z,25.80
2023-05-14T07:25:49.092Z,25.81
2023-05-14T07:27:50.471Z,25.82
2023-05-14T07:29:51.970Z,25.81
2023-05-14T07:31:53.471Z,25.81
2023-05-14T07:33:54.960Z,25.81
2023-05-14T07:35:56.899Z,25.80
2023-05-14T07:37:58.782Z,25.80
2023-05-14T07:40:00.252Z,25.80
2023-05-14T07:42:01.777Z,25.80
2023-05-14T07:44:03.217Z,25.80
2023-05-14T07:46:04.936Z,25.80
2023-05-14T07:48:06.749Z,25.73
2023-05-14T07:50:08.837Z,25.81
2023-05-14T07:52:10.368Z,25.82
2023-05-14T07:54:11.867Z,25.82
2023-05-14T07:56:13.353Z,25.82
2023-05-14T07:58:14.998Z,25.81
2023-05-14T08:00:17.064Z,25.82
2023-05-14T08:02:18.779Z,25.81
2023-05-14T08:04:20.323Z,25.80
2023-05-14T08:06:22.734Z,25.80
2023-05-14T08:08:24.234Z,25.80
2023-05-14T08:10:26.182Z,25.81
2023-05-14T08:12:28.678Z,25.82
2023-05-14T08:14:30.160Z,25.82
2023-05-14T08:16:31.564Z,25.83
2023-05-14T08:18:33.091Z,25.82
2023-05-14T08:20:34.755Z,25.83
2023-05-14T08:22:36.277Z,25.82
2023-05-14T08:24:37.731Z,25.82
2023-05-14T08:26:39.113Z,25.82
2023-05-14T08:28:40.585Z,25.81
2023-05-14T08:30:42.162Z,25.80
2023-05-14T08:32:43.872Z,25.81
2023-05-14T08:34:45.458Z,25.81
2023-05-14T08:36:46.939Z,25.82
2023-05-14T08:38:50.344Z,25.83
2023-05-14T08:41:00.614Z,25.83
2023-05-14T08:43:02.386Z,25.83
2023-05-14T08:45:05.770Z,25.83
2023-05-14T08:47:07.399Z,25.84
2023-05-14T08:49:21.047Z,25.83
2023-05-14T08:51:22.704Z,25.82
2023-05-14T08:53:26.859Z,25.81
2023-05-14T08:55:28.526Z,25.81
2023-05-14T08:57:33.289Z,25.81
2023-05-14T08:59:34.713Z,25.80
2023-05-14T09:01:37.921Z,25.81
2023-05-14T09:03:39.543Z,25.82
2023-05-14T09:05:41.366Z,25.82
2023-05-14T09:07:42.905Z,25.82
2023-05-14T09:09:45.915Z,25.82
2023-05-14T09:11:48.419Z,25.83
2023-05-14T09:13:49.881Z,25.82
2023-05-14T09:15:52.029Z,25.82
2023-05-14T09:17:53.584Z,25.81
2023-05-14T09:19:55.915Z,25.81
2023-05-14T09:22:00.991Z,25.81
2023-05-14T09:24:02.776Z,25.81
2023-05-14T09:26:05.489Z,25.83
2023-05-14T09:28:08.714Z,25.84
2023-05-14T09:30:11.215Z,25.85
2023-05-14T09:32:12.893Z,25.85
2023-05-14T09:34:23.303Z,25.87
2023-05-14T09:36:26.997Z,25.86
2023-05-14T09:38:31.574Z,25.86
2023-05-14T09:40:33.018Z,25.86
2023-05-14T09:42:34.441Z,25.86
2023-05-14T09:44:37.994Z,25.86
2023-05-14T09:46:39.473Z,25.85
2023-05-14T09:48:41.012Z,25.85
2023-05-14T09:50:46.075Z,25.86
2023-05-14T09:52:47.604Z,25.86
2023-05-14T09:54:50.815Z,25.88
2023-05-14T09:56:53.861Z,25.88
2023-05-14T09:58:56.708Z,25.89
2023-05-14T10:00:58.575Z,25.89
2023-05-14T10:03:04.174Z,25.90
2023-05-14T10:05:06.855Z,25.89
2023-05-14T10:07:08.638Z,25.89
2023-05-14T10:09:12.085Z,25.89
2023-05-14T10:11:14.924Z,25.89
2023-05-14T10:13:19.918Z,25.88
2023-05-14T10:15:25.648Z,25.89
2023-05-14T10:17:31.101Z,25.90
2023-05-14T10:19:34.207Z,25.92
2023-05-14T10:21:36.990Z,25.92
2023-05-14T10:23:39.017Z,25.93
2023-05-14T10:25:41.088Z,25.94
2023-05-14T10:27:42.694Z,25.94
2023-05-14T10:29:48.242Z,25.94
2023-05-14T10:31:51.564Z,25.94
2023-05-14T10:33:54.600Z,25.94
2023-05-14T10:36:02.031Z,25.94
2023-05-14T10:38:07.815Z,25.94
2023-05-14T10:40:09.943Z,25.94
2023-05-14T10:42:13.151Z,25.95
2023-05-14T10:44:15.799Z,25.96
2023-05-14T10:46:17.487Z,25.97
2023-05-14T10:48:19.663Z,25.99
2023-05-14T10:50:21.136Z,25.98
2023-05-14T10:52:23.267Z,25.98
2023-05-14T10:54:27.308Z,25.98
2023-05-14T10:56:29.079Z,25.99
2023-05-14T10:58:32.306Z,25.98
2023-05-14T11:00:34.206Z,25.98
2023-05-14T11:02:37.448Z,25.99
2023-05-14T11:04:41.557Z,25.98
2023-05-14T11:06:43.497Z,25.99
2023-05-14T11:08:46.251Z,26.02
2023-05-14T11:10:48.886Z,26.02
2023-05-14T11:12:53.519Z,26.03
2023-05-14T11:14:57.055Z,26.03
2023-05-14T11:16:58.594Z,26.03
2023-05-14T11:19:04.436Z,26.04
2023-05-14T11:21:06.158Z,26.04
2023-05-14T11:23:08.402Z,26.04
2023-05-14T11:25:10.572Z,26.04
2023-05-14T11:27:12.155Z,26.04
2023-05-14T11:29:13.578Z,26.04
2023-05-14T11:31:15.158Z,26.04
2023-05-14T11:33:17.717Z,26.06
2023-05-14T11:35:19.182Z,26.07
2023-05-14T11:37:21.046Z,26.09
2023-05-14T11:39:22.631Z,26.09
2023-05-14T11:41:24.484Z,26.10
2023-05-14T11:43:29.299Z,26.10
2023-05-14T11:45:32.977Z,26.10
2023-05-14T11:47:34.500Z,26.11
2023-05-14T11:49:37.672Z,26.10
2023-05-14T11:51:39.129Z,26.10
2023-05-14T11:53:40.680Z,26.11
2023-05-14T11:55:42.204Z,26.11
2023-05-14T11:57:43.941Z,26.12
2023-05-14T11:59:45.561Z,26.13
2023-05-14T12:01:49.011Z,26.14
2023-05-14T12:03:51.660Z,26.15
2023-05-14T12:05:57.093Z,26.16
2023-05-14T12:07:58.520Z,26.17
2023-05-14T12:10:01.341Z,26.17
2023-05-14T12:12:07.585Z,26.18
2023-05-14T12:14:15.893Z,26.16
2023-05-14T12:16:18.297Z,26.16
2023-05-14T12:18:24.533Z,26.18
2023-05-14T12:20:29.455Z,26.18
2023-05-14T12:22:30.989Z,26.19
2023-05-14T12:24:33.160Z,26.20
2023-05-14T12:26:34.797Z,26.22
2023-05-14T12:28:38.962Z,26.22
2023-05-14T12:30:41.240Z,26.22
2023-05-14T12:32:43.929Z,26.24
2023-05-14T12:34:45.488Z,26.23
2023-05-14T12:36:46.963Z,26.23
2023-05-14T12:38:49.057Z,26.25
2023-05-14T12:40:50.716Z,26.25
2023-05-14T12:42:53.288Z,26.24
2023-05-14T12:44:56.238Z,26.25
2023-05-14T12:46:57.938Z,26.25
2023-05-14T12:48:59.441Z,26.26
2023-05-14T12:51:00.992Z,26.26
2023-05-14T12:53:03.002Z,26.27
2023-05-14T12:55:04.708Z,26.28
2023-05-14T12:57:06.324Z,26.29
2023-05-14T12:59:09.347Z,26.31
2023-05-14T13:01:10.865Z,26.30
2023-05-14T13:03:12.370Z,26.31
2023-05-14T13:05:13.813Z,26.32
2023-05-14T13:07:15.558Z,26.33
2023-05-14T13:09:16.974Z,26.33
2023-05-14T13:11:18.399Z,26.34
2023-05-14T13:13:20.187Z,26.34
2023-05-14T13:15:22.393Z,26.35
2023-05-14T13:17:24.136Z,26.36
2023-05-14T13:19:25.651Z,26.36
2023-05-14T13:21:27.188Z,26.38
2023-05-14T13:23:28.631Z,26.39
2023-05-14T13:25:30.309Z,26.39
2023-05-14T13:27:31.778Z,26.40
2023-05-14T13:29:33.189Z,26.39
2023-05-14T13:31:34.788Z,26.40
2023-05-14T13:33:37.330Z,26.40
2023-05-14T13:35:38.768Z,26.40
2023-05-14T13:37:40.276Z,26.40
2023-05-14T13:39:41.698Z,26.41
2023-05-14T13:41:43.253Z,26.42
2023-05-14T13:43:44.771Z,26.44
2023-05-14T13:45:46.304Z,26.46
2023-05-14T13:47:49.525Z,26.46
2023-05-14T13:49:54.671Z,26.48
2023-05-14T13:51:56.073Z,26.48
2023-05-14T13:53:57.530Z,26.39
2023-05-14T13:56:01.248Z,26.49
2023-05-14T13:58:03.778Z,26.49
2023-05-14T14:00:06.600Z,26.50
2023-05-14T14:02:08.196Z,26.49
2023-05-14T14:04:10.302Z,26.50
2023-05-14T14:06:11.791Z,26.52
2023-05-14T14:10:23.556Z,26.55
2023-05-14T14:12:24.966Z,26.56
2023-05-14T14:14:28.033Z,26.58
2023-05-14T14:16:29.642Z,26.59
2023-05-14T14:18:31.186Z,26.60
2023-05-14T14:20:32.676Z,26.60
2023-05-14T14:22:34.153Z,26.60
2023-05-14T14:24:35.608Z,26.61
2023-05-14T14:26:37.252Z,26.61
2023-05-14T14:28:40.244Z,26.60
2023-05-14T14:30:42.219Z,26.61
2023-05-14T14:32:44.515Z,26.63
2023-05-14T14:34:46.326Z,26.64
2023-05-14T14:36:47.741Z,26.66
2023-05-14T14:38:49.211Z,26.67
2023-05-14T14:40:50.669Z,26.69
2023-05-14T14:42:52.094Z,26.69
2023-05-14T14:44:53.506Z,26.70
2023-05-14T14:46:54.928Z,26.70
2023-05-14T14:48:56.380Z,26.70
2023-05-14T14:50:57.937Z,26.71
2023-05-14T14:52:59.325Z,26.71
2023-05-14T14:55:00.777Z,26.70
2023-05-14T14:57:02.221Z,26.72
2023-05-14T14:59:04.034Z,26.72
2023-05-14T15:01:05.550Z,26.74
2023-05-14T15:03:08.724Z,26.76
2023-05-14T15:05:10.205Z,26.78
2023-05-14T15:07:11.908Z,26.78
2023-05-14T15:09:13.497Z,26.78
2023-05-14T15:11:14.899Z,26.78
2023-05-14T15:13:16.393Z,26.78
2023-05-14T15:15:17.800Z,26.78
2023-05-14T15:17:19.191Z,26.78
2023-05-14T15:19:20.754Z,26.78
2023-05-14T15:21:22.232Z,26.79
2023-05-14T15:23:23.672Z,26.80
2023-05-14T15:25:26.269Z,26.81
2023-05-14T15:27:27.877Z,26.82
2023-05-14T15:29:29.516Z,26.83
2023-05-14T15:31:31.486Z,26.84
2023-05-14T15:33:33.960Z,26.84
2023-05-14T15:35:36.457Z,26.85
2023-05-14T15:37:39.111Z,26.85
2023-05-14T15:39:40.592Z,26.85
2023-05-14T15:41:42.070Z,26.84
2023-05-14T15:43:43.552Z,26.84
2023-05-14T15:45:46.018Z,26.84
2023-05-14T15:47:47.536Z,26.83
2023-05-14T15:49:49.494Z,26.83
2023-05-14T15:51:51.055Z,26.84
2023-05-14T15:53:53.401Z,26.86
2023-05-14T15:55:55.015Z,26.86
2023-05-14T15:57:57.262Z,26.87
2023-05-14T15:59:58.735Z,26.91
2023-05-14T16:02:00.353Z,26.91
2023-05-14T16:04:01.990Z,26.92
2023-05-14T16:06:03.537Z,26.92
2023-05-14T16:08:05.177Z,26.91
2023-05-14T16:10:06.944Z,26.91
2023-05-14T16:12:08.576Z,26.91
2023-05-14T16:14:10.608Z,26.91
2023-05-14T16:16:12.128Z,26.92
2023-05-14T16:18:13.916Z,26.93
2023-05-14T16:20:15.543Z,26.93
2023-05-14T16:22:17.017Z,26.93
2023-05-14T16:24:18.518Z,26.93
2023-05-14T16:26:20.023Z,26.94
2023-05-14T16:28:21.702Z,26.94
2023-05-14T16:30:23.448Z,26.94
2023-05-14T16:32:25.138Z,26.93
2023-05-14T16:34:26.717Z,26.94
2023-05-14T16:36:28.345Z,26.94
2023-05-14T16:38:29.865Z,26.93
2023-05-14T16:40:31.328Z,26.93
2023-05-14T16:42:32.951Z,26.93
2023-05-14T16:44:34.484Z,26.94
2023-05-14T16:46:36.263Z,26.94
2023-05-14T16:48:38.008Z,26.95
2023-05-14T16:50:39.469Z,26.95
2023-05-14T16:52:40.990Z,26.86
2023-05-14T16:54:42.425Z,26.95
2023-05-14T16:56:47.957Z,26.95
2023-05-14T16:58:49.773Z,26.94
2023-05-14T17:00:51.174Z,26.94
2023-05-14T17:02:54.283Z,26.95
2023-05-14T17:04:56.060Z,26.95
2023-05-14T17:06:57.733Z,26.94
2023-05-14T17:08:59.303Z,26.94
2023-05-14T17:11:00.859Z,26.95
2023-05-14T17:13:02.659Z,26.96
2023-05-14T17:15:05.688Z,26.96
2023-05-14T17:17:07.425Z,26.97
2023-05-14T17:19:09.077Z,26.97
2023-05-14T17:21:10.620Z,26.96
2023-05-14T17:23:12.046Z,26.86
2023-05-14T17:25:13.607Z,26.97
2023-05-14T17:27:16.665Z,26.98
2023-05-14T17:29:18.469Z,26.96
2023-05-14T17:31:21.712Z,26.96
2023-05-14T17:33:23.446Z,26.87
2023-05-14T17:35:25.707Z,26.96
2023-05-14T17:37:27.419Z,26.97
2023-05-14T17:39:29.185Z,26.97
2023-05-14T17:41:30.635Z,26.98
2023-05-14T17:43:32.146Z,26.98
2023-05-14T17:45:42.767Z,26.98
2023-05-14T17:47:54.393Z,26.99
2023-05-14T17:49:55.850Z,26.89
2023-05-14T17:51:57.312Z,26.97
2023-05-14T17:53:58.913Z,26.97
2023-05-14T17:56:00.394Z,26.95
2023-05-14T17:58:01.973Z,26.96
2023-05-14T18:00:04.902Z,26.96
2023-05-14T18:02:07.765Z,26.96
2023-05-14T18:04:09.489Z,26.96
2023-05-14T18:06:11.536Z,26.97
2023-05-14T18:08:13.106Z,26.97
2023-05-14T18:10:14.630Z,26.97
2023-05-14T18:12:16.081Z,26.97
2023-05-14T18:14:18.496Z,26.97
2023-05-14T18:16:19.993Z,26.96
2023-05-14T18:18:21.756Z,26.96
2023-05-14T18:20:23.306Z,26.96
2023-05-14T18:22:24.824Z,26.95
2023-05-14T18:24:26.561Z,26.95
2023-05-14T18:26:28.429Z,26.94
2023-05-14T18:28:29.824Z,26.95
2023-05-14T18:30:31.298Z,26.96
2023-05-14T18:32:32.745Z,26.96
2023-05-14T18:34:34.249Z,26.97
2023-05-14T18:36:35.836Z,26.97
2023-05-14T18:38:37.403Z,26.98
2023-05-14T18:40:38.891Z,26.97
2023-05-14T18:42:41.166Z,26.98
2023-05-14T18:44:44.563Z,26.97
2023-05-14T18:46:46.265Z,27.00
2023-05-14T18:48:47.756Z,27.01
2023-05-14T18:50:49.158Z,27.04
2023-05-14T18:52:50.741Z,27.08
2023-05-14T18:54:52.583Z,27.11
2023-05-14T18:56:54.291Z,27.11
2023-05-14T18:58:58.953Z,27.11
2023-05-14T19:01:00.732Z,27.12
2023-05-14T19:03:02.532Z,27.13
2023-05-14T19:05:04.115Z,27.14
2023-05-14T19:07:05.794Z,27.13
2023-05-14T19:09:07.346Z,27.13
2023-05-14T19:11:08.839Z,27.12
2023-05-14T19:13:10.384Z,27.11
2023-05-14T19:15:11.989Z,27.11
2023-05-14T19:17:13.481Z,27.10
2023-05-14T19:19:15.185Z,27.10
2023-05-14T19:21:16.786Z,27.10
2023-05-14T19:23:18.295Z,27.10
2023-05-14T19:25:19.739Z,27.11
2023-05-14T19:27:21.210Z,27.12
2023-05-14T19:29:22.649Z,27.11
2023-05-14T19:31:24.721Z,27.12
2023-05-14T19:33:26.243Z,27.11
2023-05-14T19:35:27.816Z,27.11
2023-05-14T19:37:29.356Z,27.10
2023-05-14T19:39:30.920Z,27.10
2023-05-14T19:41:32.422Z,27.09
2023-05-14T19:43:33.865Z,27.08
2023-05-14T19:45:39.390Z,27.08
2023-05-14T19:47:41.589Z,27.09
2023-05-14T19:49:43.093Z,27.09
2023-05-14T19:51:44.998Z,27.10
2023-05-14T19:53:46.606Z,27.10
2023-05-14T19:55:48.031Z,27.10
2023-05-14T19:57:49.472Z,27.10
2023-05-14T19:59:50.992Z,27.10
2023-05-14T20:01:54.516Z,27.08
2023-05-14T20:03:55.975Z,27.09
2023-05-14T20:05:58.027Z,27.07
2023-05-14T20:07:59.528Z,27.06
2023-05-14T20:10:01.098Z,27.04
2023-05-14T20:12:02.657Z,27.05
2023-05-14T20:14:04.091Z,27.04
2023-05-14T20:16:05.820Z,27.06
2023-05-14T20:18:07.495Z,27.06
2023-05-14T20:20:10.066Z,27.07
2023-05-14T20:22:11.498Z,27.08
2023-05-14T20:24:13.012Z,27.08
2023-05-14T20:26:14.769Z,27.08
2023-05-14T20:28:16.202Z,27.05
2023-05-14T20:30:17.722Z,27.05
2023-05-14T20:32:24.640Z,27.04
2023-05-14T20:34:26.115Z,27.04
2023-05-14T20:36:29.526Z,27.05
2023-05-14T20:38:32.605Z,27.05
2023-05-14T20:40:34.053Z,27.05
2023-05-14T20:42:36.395Z,27.05
2023-05-14T20:44:37.992Z,27.06
2023-05-14T20:46:39.611Z,27.07
2023-05-14T20:48:41.119Z,27.06
2023-05-14T20:50:42.900Z,27.05
2023-05-14T20:52:44.452Z,27.05
2023-05-14T20:54:46.192Z,27.06
2023-05-14T20:56:47.624Z,27.05
2023-05-14T20:58:49.152Z,27.04
2023-05-14T21:00:51.020Z,27.03
2023-05-14T21:02:53.085Z,27.03
2023-05-14T21:04:54.936Z,27.04
2023-05-14T21:06:56.728Z,27.04
2023-05-14T21:08:58.179Z,27.04
2023-05-14T21:10:59.620Z,27.07
2023-05-14T21:13:01.321Z,27.07
2023-05-14T21:15:02.984Z,27.06
2023-05-14T21:17:04.608Z,27.06
2023-05-14T21:19:06.103Z,27.06
2023-05-14T21:21:07.735Z,27.06
2023-05-14T21:23:09.205Z,27.05
2023-05-14T21:25:11.021Z,27.05
2023-05-14T21:27:12.508Z,27.05
2023-05-14T21:29:14.051Z,27.05
2023-05-14T21:31:15.449Z,27.05
2023-05-14T21:33:16.965Z,27.05
2023-05-14T21:35:18.492Z,27.06
2023-05-14T21:37:21.218Z,27.06
2023-05-14T21:39:22.718Z,27.06
2023-05-14T21:41:24.206Z,27.07
2023-05-14T21:43:25.777Z,27.06
2023-05-14T21:45:27.420Z,27.06
2023-05-14T21:47:29.253Z,27.06
2023-05-14T21:49:30.805Z,27.06
2023-05-14T21:51:33.156Z,27.05
2023-05-14T21:53:34.766Z,27.05
2023-05-14T21:55:36.398Z,27.04
2023-05-14T21:57:37.882Z,27.04
2023-05-14T21:59:39.325Z,27.04
2023-05-14T22:01:56.050Z,27.06
2023-05-14T22:04:02.340Z,27.06
2023-05-14T22:06:03.960Z,27.06
2023-05-14T22:08:05.981Z,27.07
2023-05-14T22:10:07.572Z,27.06
2023-05-14T22:12:09.131Z,27.05
2023-05-14T22:14:10.717Z,27.06
2023-05-14T22:16:13.742Z,27.05
2023-05-14T22:18:15.752Z,27.04
2023-05-14T22:20:17.217Z,27.04
2023-05-14T22:22:18.861Z,27.03
2023-05-14T22:24:20.914Z,27.05
2023-05-14T22:26:22.388Z,27.05
2023-05-14T22:28:23.876Z,27.05
2023-05-14T22:30:25.414Z,27.05
2023-05-14T22:32:27.022Z,27.07
2023-05-14T22:34:28.488Z,27.06
2023-05-14T22:36:30.475Z,27.06
2023-05-14T22:38:31.931Z,27.05
2023-05-14T22:40:33.472Z,27.05
2023-05-14T22:42:34.895Z,27.05
2023-05-14T22:44:37.057Z,27.03
2023-05-14T22:46:38.523Z,27.03
2023-05-14T22:48:40.036Z,27.03
2023-05-14T22:50:41.724Z,27.02
2023-05-14T22:52:43.194Z,27.04
2023-05-14T22:54:45.344Z,27.04
2023-05-14T22:56:47.029Z,27.04
2023-05-14T22:58:48.527Z,27.04
2023-05-14T23:00:50.207Z,27.04
2023-05-14T23:02:51.721Z,27.04
2023-05-14T23:04:53.376Z,27.03
2023-05-14T23:06:55.061Z,27.04
2023-05-14T23:08:56.595Z,27.02
2023-05-14T23:10:58.012Z,27.02
2023-05-14T23:12:59.716Z,27.01
2023-05-14T23:15:01.497Z,27.01
2023-05-14T23:17:03.177Z,27.01
2023-05-14T23:19:04.975Z,27.01
2023-05-14T23:21:06.775Z,27.02
2023-05-14T23:23:08.531Z,27.02
2023-05-14T23:25:10.064Z,27.02
2023-05-14T23:27:11.735Z,27.02
2023-05-14T23:29:13.253Z,27.02
2023-05-14T23:31:14.685Z,27.03
2023-05-14T23:33:16.454Z,27.02
2023-05-14T23:35:18.086Z,27.01
2023-05-14T23:37:19.548Z,27.01
2023-05-14T23:39:21.459Z,26.99
2023-05-14T23:41:22.878Z,26.99
2023-05-14T23:43:24.251Z,26.99
2023-05-14T23:45:29.090Z,26.99
2023-05-14T23:47:30.682Z,27.00
2023-05-14T23:49:32.207Z,27.00
2023-05-14T23:51:33.774Z,27.01
2023-05-14T23:53:35.254Z,27.01
2023-05-14T23:55:36.916Z,27.01
2023-05-14T23:57:38.375Z,27.00
2023-05-14T23:59:40.112Z,26.99
